sensor_id;sensor_type;location;lat;lon;timestamp;P1;durP1;ratioP1;P2;durP2;ratioP2
12350;SDS011;6240;51.538;7.696;2022-11-20T00:01:17;22.30;;;14.70;;
12350;SDS011;6240;51.538;7.696;2022-11-20T00:03:45;18.50;;;13.00;;
12350;SDS011;6240;51.538;7.696;2022-11-20T00:06:13;20.57;;;13.57;;
12350;SDS011;6240;51.538;7.696;2022-11-20T00:08:40;19.97;;;13.90;;
12350;SDS011;6240;51.538;7.696;2022-11-20T00:11:08;16.23;;;13.00;;
12350;SDS011;6240;51.538;7.696;2022-11-20T00:13:37;20.07;;;13.87;;
12350;SDS011;6240;51.538;7.696;2022-11-20T00:16:05;19.87;;;14.10;;
12350;SDS011;6240;51.538;7.696;2022-11-20T00:18:33;18.07;;;13.77;;
12350;SDS011;6240;51.538;7.696;2022-11-20T00:21:01;19.70;;;13.23;;
12350;SDS011;6240;51.538;7.696;2022-11-20T00:23:28;18.03;;;13.67;;
12350;SDS011;6240;51.538;7.696;2022-11-20T00:25:55;19.10;;;14.10;;
12350;SDS011;6240;51.538;7.696;2022-11-20T00:28:22;19.33;;;14.50;;
12350;SDS011;6240;51.538;7.696;2022-11-20T00:30:51;18.53;;;13.47;;
12350;SDS011;6240;51.538;7.696;2022-11-20T00:33:18;21.20;;;14.23;;
12350;SDS011;6240;51.538;7.696;2022-11-20T00:35:45;22.30;;;13.93;;
12350;SDS011;6240;51.538;7.696;2022-11-20T00:38:12;21.70;;;14.47;;
12350;SDS011;6240;51.538;7.696;2022-11-20T00:40:40;20.73;;;14.27;;
12350;SDS011;6240;51.538;7.696;2022-11-20T00:43:07;19.00;;;14.40;;
12350;SDS011;6240;51.538;7.696;2022-11-20T00:45:34;20.00;;;13.87;;
12350;SDS011;6240;51.538;7.696;2022-11-20T00:48:03;23.17;;;15.23;;
12350;SDS011;6240;51.538;7.696;2022-11-20T00:50:30;18.63;;;14.43;;
12350;SDS011;6240;51.538;7.696;2022-11-20T00:52:57;24.37;;;14.70;;
12350;SDS011;6240;51.538;7.696;2022-11-20T00:55:24;27.00;;;15.73;;
12350;SDS011;6240;51.538;7.696;2022-11-20T00:57:51;23.37;;;14.63;;
12350;SDS011;6240;51.538;7.696;2022-11-20T01:00:19;19.30;;;14.03;;
12350;SDS011;6240;51.538;7.696;2022-11-20T01:02:46;20.77;;;13.87;;
12350;SDS011;6240;51.538;7.696;2022-11-20T01:05:14;19.93;;;13.87;;
12350;SDS011;6240;51.538;7.696;2022-11-20T01:07:42;21.10;;;14.23;;
12350;SDS011;6240;51.538;7.696;2022-11-20T01:10:09;22.33;;;15.30;;
12350;SDS011;6240;51.538;7.696;2022-11-20T01:12:37;20.23;;;14.30;;
12350;SDS011;6240;51.538;7.696;2022-11-20T01:15:06;19.90;;;14.53;;
12350;SDS011;6240;51.538;7.696;2022-11-20T01:17:34;18.43;;;13.70;;
12350;SDS011;6240;51.538;7.696;2022-11-20T01:20:01;18.77;;;12.60;;
12350;SDS011;6240;51.538;7.696;2022-11-20T01:22:29;17.70;;;13.27;;
12350;SDS011;6240;51.538;7.696;2022-11-20T01:24:57;18.77;;;13.07;;
12350;SDS011;6240;51.538;7.696;2022-11-20T01:27:24;18.70;;;13.23;;
12350;SDS011;6240;51.538;7.696;2022-11-20T01:29:51;17.97;;;12.50;;
12350;SDS011;6240;51.538;7.696;2022-11-20T01:32:18;25.13;;;15.70;;
12350;SDS011;6240;51.538;7.696;2022-11-20T01:34:45;22.90;;;15.33;;
12350;SDS011;6240;51.538;7.696;2022-11-20T01:37:13;21.97;;;14.60;;
12350;SDS011;6240;51.538;7.696;2022-11-20T01:39:41;21.57;;;15.10;;
12350;SDS011;6240;51.538;7.696;2022-11-20T01:42:08;21.60;;;14.07;;
12350;SDS011;6240;51.538;7.696;2022-11-20T01:44:55;20.00;;;13.40;;
12350;SDS011;6240;51.538;7.696;2022-11-20T01:47:30;15.37;;;12.33;;
12350;SDS011;6240;51.538;7.696;2022-11-20T01:49:59;18.23;;;12.87;;
12350;SDS011;6240;51.538;7.696;2022-11-20T01:52:30;17.37;;;12.80;;
12350;SDS011;6240;51.538;7.696;2022-11-20T01:55:00;18.63;;;13.13;;
12350;SDS011;6240;51.538;7.696;2022-11-20T01:57:28;18.77;;;13.23;;
12350;SDS011;6240;51.538;7.696;2022-11-20T01:59:57;16.83;;;12.87;;
12350;SDS011;6240;51.538;7.696;2022-11-20T02:02:26;16.00;;;13.07;;
12350;SDS011;6240;51.538;7.696;2022-11-20T02:04:54;18.50;;;13.17;;
12350;SDS011;6240;51.538;7.696;2022-11-20T02:07:23;19.60;;;13.67;;
12350;SDS011;6240;51.538;7.696;2022-11-20T02:09:51;16.67;;;12.63;;
12350;SDS011;6240;51.538;7.696;2022-11-20T02:12:19;18.27;;;13.60;;
12350;SDS011;6240;51.538;7.696;2022-11-20T02:15:04;17.07;;;12.23;;
12350;SDS011;6240;51.538;7.696;2022-11-20T02:17:32;17.23;;;13.20;;
12350;SDS011;6240;51.538;7.696;2022-11-20T02:19:59;17.90;;;12.40;;
12350;SDS011;6240;51.538;7.696;2022-11-20T02:22:27;17.00;;;12.73;;
12350;SDS011;6240;51.538;7.696;2022-11-20T02:24:57;16.37;;;12.53;;
12350;SDS011;6240;51.538;7.696;2022-11-20T02:27:26;19.27;;;13.37;;
12350;SDS011;6240;51.538;7.696;2022-11-20T02:29:53;19.33;;;14.00;;
12350;SDS011;6240;51.538;7.696;2022-11-20T02:32:23;18.03;;;13.60;;
12350;SDS011;6240;51.538;7.696;2022-11-20T02:34:50;19.03;;;13.93;;
12350;SDS011;6240;51.538;7.696;2022-11-20T02:37:18;20.70;;;13.13;;
12350;SDS011;6240;51.538;7.696;2022-11-20T02:39:46;19.43;;;13.13;;
12350;SDS011;6240;51.538;7.696;2022-11-20T02:42:15;18.77;;;13.17;;
12350;SDS011;6240;51.538;7.696;2022-11-20T02:44:42;18.47;;;13.83;;
12350;SDS011;6240;51.538;7.696;2022-11-20T02:47:10;17.60;;;12.80;;
12350;SDS011;6240;51.538;7.696;2022-11-20T02:49:37;17.37;;;12.97;;
12350;SDS011;6240;51.538;7.696;2022-11-20T02:52:04;19.47;;;13.67;;
12350;SDS011;6240;51.538;7.696;2022-11-20T02:54:31;17.27;;;13.10;;
12350;SDS011;6240;51.538;7.696;2022-11-20T02:56:58;18.80;;;12.93;;
12350;SDS011;6240;51.538;7.696;2022-11-20T02:59:27;18.07;;;12.07;;
12350;SDS011;6240;51.538;7.696;2022-11-20T03:01:54;16.63;;;12.87;;
12350;SDS011;6240;51.538;7.696;2022-11-20T03:04:21;19.93;;;13.80;;
12350;SDS011;6240;51.538;7.696;2022-11-20T03:06:48;16.57;;;12.90;;
12350;SDS011;6240;51.538;7.696;2022-11-20T03:09:16;18.23;;;13.53;;
12350;SDS011;6240;51.538;7.696;2022-11-20T03:11:43;16.37;;;12.97;;
12350;SDS011;6240;51.538;7.696;2022-11-20T03:14:10;18.33;;;14.03;;
12350;SDS011;6240;51.538;7.696;2022-11-20T03:16:40;17.20;;;12.70;;
12350;SDS011;6240;51.538;7.696;2022-11-20T03:19:07;20.13;;;13.07;;
12350;SDS011;6240;51.538;7.696;2022-11-20T03:21:34;17.97;;;12.93;;
12350;SDS011;6240;51.538;7.696;2022-11-20T03:24:01;17.23;;;12.70;;
12350;SDS011;6240;51.538;7.696;2022-11-20T03:26:29;18.43;;;12.60;;
12350;SDS011;6240;51.538;7.696;2022-11-20T03:28:57;17.20;;;12.67;;
12350;SDS011;6240;51.538;7.696;2022-11-20T03:31:25;19.00;;;13.30;;
12350;SDS011;6240;51.538;7.696;2022-11-20T03:33:55;17.53;;;12.63;;
12350;SDS011;6240;51.538;7.696;2022-11-20T03:36:22;15.80;;;12.97;;
12350;SDS011;6240;51.538;7.696;2022-11-20T03:38:50;20.90;;;13.20;;
12350;SDS011;6240;51.538;7.696;2022-11-20T03:41:18;15.90;;;12.10;;
12350;SDS011;6240;51.538;7.696;2022-11-20T03:43:46;17.20;;;12.37;;
12350;SDS011;6240;51.538;7.696;2022-11-20T03:46:14;14.87;;;12.50;;
12350;SDS011;6240;51.538;7.696;2022-11-20T03:48:41;17.23;;;12.00;;
12350;SDS011;6240;51.538;7.696;2022-11-20T03:51:11;18.47;;;12.50;;
12350;SDS011;6240;51.538;7.696;2022-11-20T03:53:39;17.57;;;11.80;;
12350;SDS011;6240;51.538;7.696;2022-11-20T03:56:07;17.43;;;13.27;;
12350;SDS011;6240;51.538;7.696;2022-11-20T03:58:34;17.60;;;12.33;;
12350;SDS011;6240;51.538;7.696;2022-11-20T04:01:05;18.27;;;12.70;;
12350;SDS011;6240;51.538;7.696;2022-11-20T04:03:33;17.10;;;12.50;;
12350;SDS011;6240;51.538;7.696;2022-11-20T04:06:03;17.60;;;12.47;;
12350;SDS011;6240;51.538;7.696;2022-11-20T04:08:32;18.00;;;12.87;;
12350;SDS011;6240;51.538;7.696;2022-11-20T04:11:09;20.13;;;12.50;;
12350;SDS011;6240;51.538;7.696;2022-11-20T04:13:36;15.17;;;12.47;;
12350;SDS011;6240;51.538;7.696;2022-11-20T04:16:04;17.57;;;13.00;;
12350;SDS011;6240;51.538;7.696;2022-11-20T04:18:31;19.90;;;12.47;;
12350;SDS011;6240;51.538;7.696;2022-11-20T04:20:58;18.17;;;12.27;;
12350;SDS011;6240;51.538;7.696;2022-11-20T04:23:26;17.43;;;12.77;;
12350;SDS011;6240;51.538;7.696;2022-11-20T04:25:54;14.70;;;12.20;;
12350;SDS011;6240;51.538;7.696;2022-11-20T04:28:21;16.60;;;12.43;;
12350;SDS011;6240;51.538;7.696;2022-11-20T04:30:49;16.73;;;13.07;;
12350;SDS011;6240;51.538;7.696;2022-11-20T04:33:16;17.60;;;13.23;;
12350;SDS011;6240;51.538;7.696;2022-11-20T04:35:43;19.20;;;13.67;;
12350;SDS011;6240;51.538;7.696;2022-11-20T04:38:11;14.50;;;11.63;;
12350;SDS011;6240;51.538;7.696;2022-11-20T04:40:39;16.00;;;12.60;;
12350;SDS011;6240;51.538;7.696;2022-11-20T04:43:08;17.50;;;12.33;;
12350;SDS011;6240;51.538;7.696;2022-11-20T04:45:35;16.00;;;12.10;;
12350;SDS011;6240;51.538;7.696;2022-11-20T04:48:02;16.30;;;12.10;;
12350;SDS011;6240;51.538;7.696;2022-11-20T04:50:29;16.53;;;11.80;;
12350;SDS011;6240;51.538;7.696;2022-11-20T04:52:56;16.20;;;12.87;;
12350;SDS011;6240;51.538;7.696;2022-11-20T04:55:24;18.23;;;13.30;;
12350;SDS011;6240;51.538;7.696;2022-11-20T04:57:51;19.77;;;12.87;;
12350;SDS011;6240;51.538;7.696;2022-11-20T05:00:19;18.83;;;12.77;;
12350;SDS011;6240;51.538;7.696;2022-11-20T05:02:47;16.37;;;11.83;;
12350;SDS011;6240;51.538;7.696;2022-11-20T05:05:14;18.83;;;11.70;;
12350;SDS011;6240;51.538;7.696;2022-11-20T05:07:41;16.57;;;12.27;;
12350;SDS011;6240;51.538;7.696;2022-11-20T05:10:08;16.50;;;12.37;;
12350;SDS011;6240;51.538;7.696;2022-11-20T05:12:36;15.10;;;11.20;;
12350;SDS011;6240;51.538;7.696;2022-11-20T05:15:03;15.80;;;11.70;;
12350;SDS011;6240;51.538;7.696;2022-11-20T05:17:31;16.23;;;11.63;;
12350;SDS011;6240;51.538;7.696;2022-11-20T05:19:59;17.13;;;12.20;;
12350;SDS011;6240;51.538;7.696;2022-11-20T05:22:26;18.67;;;14.90;;
12350;SDS011;6240;51.538;7.696;2022-11-20T05:24:53;16.73;;;13.10;;
12350;SDS011;6240;51.538;7.696;2022-11-20T05:27:20;15.10;;;11.67;;
12350;SDS011;6240;51.538;7.696;2022-11-20T05:29:47;18.03;;;14.20;;
12350;SDS011;6240;51.538;7.696;2022-11-20T05:32:15;13.17;;;10.87;;
12350;SDS011;6240;51.538;7.696;2022-11-20T05:34:43;13.17;;;10.07;;
12350;SDS011;6240;51.538;7.696;2022-11-20T05:37:10;14.70;;;10.83;;
12350;SDS011;6240;51.538;7.696;2022-11-20T05:39:37;14.17;;;10.17;;
12350;SDS011;6240;51.538;7.696;2022-11-20T05:42:05;13.83;;;10.87;;
12350;SDS011;6240;51.538;7.696;2022-11-20T05:44:49;13.37;;;9.80;;
12350;SDS011;6240;51.538;7.696;2022-11-20T05:47:17;14.57;;;10.63;;
12350;SDS011;6240;51.538;7.696;2022-11-20T05:49:45;12.17;;;9.67;;
12350;SDS011;6240;51.538;7.696;2022-11-20T05:52:12;13.07;;;9.97;;
12350;SDS011;6240;51.538;7.696;2022-11-20T05:54:39;14.27;;;11.03;;
12350;SDS011;6240;51.538;7.696;2022-11-20T05:57:07;13.10;;;10.60;;
12350;SDS011;6240;51.538;7.696;2022-11-20T05:59:34;17.63;;;12.70;;
12350;SDS011;6240;51.538;7.696;2022-11-20T06:02:01;16.97;;;13.37;;
12350;SDS011;6240;51.538;7.696;2022-11-20T06:04:28;19.20;;;13.50;;
12350;SDS011;6240;51.538;7.696;2022-11-20T06:06:57;14.93;;;11.53;;
12350;SDS011;6240;51.538;7.696;2022-11-20T06:09:24;15.67;;;11.40;;
12350;SDS011;6240;51.538;7.696;2022-11-20T06:11:51;13.33;;;10.70;;
12350;SDS011;6240;51.538;7.696;2022-11-20T06:14:18;15.83;;;11.67;;
12350;SDS011;6240;51.538;7.696;2022-11-20T06:16:46;15.20;;;11.53;;
12350;SDS011;6240;51.538;7.696;2022-11-20T06:19:13;14.63;;;11.33;;
12350;SDS011;6240;51.538;7.696;2022-11-20T06:21:41;13.03;;;10.13;;
12350;SDS011;6240;51.538;7.696;2022-11-20T06:24:10;14.87;;;11.13;;
12350;SDS011;6240;51.538;7.696;2022-11-20T06:26:37;13.57;;;10.93;;
12350;SDS011;6240;51.538;7.696;2022-11-20T06:29:05;13.37;;;10.33;;
12350;SDS011;6240;51.538;7.696;2022-11-20T06:31:32;12.80;;;9.97;;
12350;SDS011;6240;51.538;7.696;2022-11-20T06:34:03;13.50;;;10.27;;
12350;SDS011;6240;51.538;7.696;2022-11-20T06:36:30;12.93;;;10.00;;
12350;SDS011;6240;51.538;7.696;2022-11-20T06:38:57;13.70;;;9.83;;
12350;SDS011;6240;51.538;7.696;2022-11-20T06:41:26;13.73;;;9.83;;
12350;SDS011;6240;51.538;7.696;2022-11-20T06:43:56;12.97;;;9.70;;
12350;SDS011;6240;51.538;7.696;2022-11-20T06:46:23;13.63;;;10.30;;
12350;SDS011;6240;51.538;7.696;2022-11-20T06:48:50;13.30;;;9.90;;
12350;SDS011;6240;51.538;7.696;2022-11-20T06:51:18;12.27;;;10.07;;
12350;SDS011;6240;51.538;7.696;2022-11-20T06:53:46;12.27;;;9.40;;
12350;SDS011;6240;51.538;7.696;2022-11-20T06:56:13;13.90;;;10.70;;
12350;SDS011;6240;51.538;7.696;2022-11-20T06:58:42;18.87;;;14.97;;
12350;SDS011;6240;51.538;7.696;2022-11-20T07:01:10;24.20;;;18.83;;
12350;SDS011;6240;51.538;7.696;2022-11-20T07:03:37;19.43;;;14.63;;
12350;SDS011;6240;51.538;7.696;2022-11-20T07:06:05;14.47;;;11.00;;
12350;SDS011;6240;51.538;7.696;2022-11-20T07:08:33;16.40;;;10.97;;
12350;SDS011;6240;51.538;7.696;2022-11-20T07:11:00;15.70;;;11.37;;
12350;SDS011;6240;51.538;7.696;2022-11-20T07:13:28;13.53;;;11.00;;
12350;SDS011;6240;51.538;7.696;2022-11-20T07:16:00;14.17;;;10.17;;
12350;SDS011;6240;51.538;7.696;2022-11-20T07:18:27;13.90;;;10.57;;
12350;SDS011;6240;51.538;7.696;2022-11-20T07:20:54;15.23;;;10.40;;
12350;SDS011;6240;51.538;7.696;2022-11-20T07:23:22;14.83;;;11.17;;
12350;SDS011;6240;51.538;7.696;2022-11-20T07:25:49;13.57;;;10.07;;
12350;SDS011;6240;51.538;7.696;2022-11-20T07:28:16;12.73;;;9.33;;
12350;SDS011;6240;51.538;7.696;2022-11-20T07:30:48;12.40;;;9.40;;
12350;SDS011;6240;51.538;7.696;2022-11-20T07:33:17;13.63;;;10.00;;
12350;SDS011;6240;51.538;7.696;2022-11-20T07:35:45;13.93;;;10.10;;
12350;SDS011;6240;51.538;7.696;2022-11-20T07:38:12;14.23;;;11.17;;
12350;SDS011;6240;51.538;7.696;2022-11-20T07:40:39;12.97;;;10.80;;
12350;SDS011;6240;51.538;7.696;2022-11-20T07:43:07;11.87;;;10.10;;
12350;SDS011;6240;51.538;7.696;2022-11-20T07:45:34;13.63;;;10.37;;
12350;SDS011;6240;51.538;7.696;2022-11-20T07:48:01;16.30;;;12.33;;
12350;SDS011;6240;51.538;7.696;2022-11-20T07:50:29;14.13;;;11.10;;
12350;SDS011;6240;51.538;7.696;2022-11-20T07:53:00;19.83;;;13.10;;
12350;SDS011;6240;51.538;7.696;2022-11-20T07:55:28;18.13;;;13.23;;
12350;SDS011;6240;51.538;7.696;2022-11-20T07:57:55;22.23;;;15.10;;
12350;SDS011;6240;51.538;7.696;2022-11-20T08:00:23;19.70;;;14.30;;
12350;SDS011;6240;51.538;7.696;2022-11-20T08:02:51;18.13;;;12.40;;
12350;SDS011;6240;51.538;7.696;2022-11-20T08:05:18;20.13;;;13.50;;
12350;SDS011;6240;51.538;7.696;2022-11-20T08:07:47;16.57;;;12.17;;
12350;SDS011;6240;51.538;7.696;2022-11-20T08:10:14;18.40;;;13.40;;
12350;SDS011;6240;51.538;7.696;2022-11-20T08:12:46;19.53;;;14.50;;
12350;SDS011;6240;51.538;7.696;2022-11-20T08:15:31;18.57;;;13.53;;
12350;SDS011;6240;51.538;7.696;2022-11-20T08:18:01;23.47;;;15.17;;
12350;SDS011;6240;51.538;7.696;2022-11-20T08:20:29;20.53;;;14.10;;
12350;SDS011;6240;51.538;7.696;2022-11-20T08:23:00;23.60;;;16.23;;
12350;SDS011;6240;51.538;7.696;2022-11-20T08:25:28;19.50;;;14.07;;
12350;SDS011;6240;51.538;7.696;2022-11-20T08:27:56;21.03;;;13.97;;
12350;SDS011;6240;51.538;7.696;2022-11-20T08:30:24;22.07;;;13.70;;
12350;SDS011;6240;51.538;7.696;2022-11-20T08:32:51;19.33;;;13.40;;
12350;SDS011;6240;51.538;7.696;2022-11-20T08:35:19;17.80;;;12.33;;
12350;SDS011;6240;51.538;7.696;2022-11-20T08:37:47;23.97;;;16.33;;
12350;SDS011;6240;51.538;7.696;2022-11-20T08:40:16;17.87;;;13.37;;
12350;SDS011;6240;51.538;7.696;2022-11-20T08:42:46;21.00;;;14.27;;
12350;SDS011;6240;51.538;7.696;2022-11-20T08:45:14;17.20;;;13.80;;
12350;SDS011;6240;51.538;7.696;2022-11-20T08:47:41;19.60;;;13.40;;
12350;SDS011;6240;51.538;7.696;2022-11-20T08:50:09;18.87;;;13.30;;
12350;SDS011;6240;51.538;7.696;2022-11-20T08:52:37;16.00;;;12.00;;
12350;SDS011;6240;51.538;7.696;2022-11-20T08:55:04;18.10;;;13.80;;
12350;SDS011;6240;51.538;7.696;2022-11-20T08:57:33;19.23;;;13.07;;
12350;SDS011;6240;51.538;7.696;2022-11-20T09:00:00;19.37;;;13.27;;
12350;SDS011;6240;51.538;7.696;2022-11-20T09:02:29;19.00;;;12.53;;
12350;SDS011;6240;51.538;7.696;2022-11-20T09:04:57;16.63;;;12.93;;
12350;SDS011;6240;51.538;7.696;2022-11-20T09:07:24;15.33;;;11.90;;
12350;SDS011;6240;51.538;7.696;2022-11-20T09:09:51;14.87;;;11.67;;
12350;SDS011;6240;51.538;7.696;2022-11-20T09:12:19;17.13;;;11.70;;
12350;SDS011;6240;51.538;7.696;2022-11-20T09:14:47;14.70;;;11.50;;
12350;SDS011;6240;51.538;7.696;2022-11-20T09:17:14;16.60;;;12.37;;
12350;SDS011;6240;51.538;7.696;2022-11-20T09:19:42;15.57;;;11.23;;
12350;SDS011;6240;51.538;7.696;2022-11-20T09:22:09;14.53;;;11.80;;
12350;SDS011;6240;51.538;7.696;2022-11-20T09:24:37;15.53;;;12.27;;
12350;SDS011;6240;51.538;7.696;2022-11-20T09:27:04;14.30;;;11.23;;
12350;SDS011;6240;51.538;7.696;2022-11-20T09:29:31;16.70;;;10.87;;
12350;SDS011;6240;51.538;7.696;2022-11-20T09:32:00;14.27;;;11.33;;
12350;SDS011;6240;51.538;7.696;2022-11-20T09:34:27;13.77;;;10.73;;
12350;SDS011;6240;51.538;7.696;2022-11-20T09:36:54;18.37;;;12.43;;
12350;SDS011;6240;51.538;7.696;2022-11-20T09:39:21;15.60;;;13.00;;
12350;SDS011;6240;51.538;7.696;2022-11-20T09:44:39;13.37;;;11.07;;
12350;SDS011;6240;51.538;7.696;2022-11-20T09:47:11;15.37;;;11.33;;
12350;SDS011;6240;51.538;7.696;2022-11-20T09:49:46;15.63;;;11.07;;
12350;SDS011;6240;51.538;7.696;2022-11-20T09:52:21;11.93;;;10.13;;
12350;SDS011;6240;51.538;7.696;2022-11-20T09:54:49;11.27;;;9.03;;
12350;SDS011;6240;51.538;7.696;2022-11-20T09:57:18;12.60;;;10.30;;
12350;SDS011;6240;51.538;7.696;2022-11-20T09:59:49;12.27;;;9.33;;
12350;SDS011;6240;51.538;7.696;2022-11-20T10:02:23;10.90;;;8.37;;
12350;SDS011;6240;51.538;7.696;2022-11-20T10:04:53;10.70;;;8.70;;
12350;SDS011;6240;51.538;7.696;2022-11-20T10:07:23;12.43;;;8.97;;
12350;SDS011;6240;51.538;7.696;2022-11-20T10:09:54;10.53;;;8.90;;
12350;SDS011;6240;51.538;7.696;2022-11-20T10:12:23;11.47;;;9.23;;
12350;SDS011;6240;51.538;7.696;2022-11-20T10:15:03;10.87;;;9.63;;
12350;SDS011;6240;51.538;7.696;2022-11-20T10:20:17;12.93;;;10.63;;
12350;SDS011;6240;51.538;7.696;2022-11-20T10:22:49;12.70;;;10.50;;
12350;SDS011;6240;51.538;7.696;2022-11-20T10:25:20;12.43;;;10.57;;
12350;SDS011;6240;51.538;7.696;2022-11-20T10:27:53;13.30;;;10.90;;
12350;SDS011;6240;51.538;7.696;2022-11-20T10:30:22;14.33;;;10.43;;
12350;SDS011;6240;51.538;7.696;2022-11-20T10:32:52;14.53;;;10.87;;
12350;SDS011;6240;51.538;7.696;2022-11-20T10:35:21;13.63;;;10.27;;
12350;SDS011;6240;51.538;7.696;2022-11-20T10:37:50;13.60;;;10.80;;
12350;SDS011;6240;51.538;7.696;2022-11-20T10:40:21;15.93;;;11.00;;
12350;SDS011;6240;51.538;7.696;2022-11-20T10:42:50;11.73;;;9.13;;
12350;SDS011;6240;51.538;7.696;2022-11-20T10:45:21;12.63;;;10.03;;
12350;SDS011;6240;51.538;7.696;2022-11-20T10:47:56;14.53;;;9.50;;
12350;SDS011;6240;51.538;7.696;2022-11-20T10:50:28;12.60;;;10.00;;
12350;SDS011;6240;51.538;7.696;2022-11-20T10:52:59;13.20;;;10.17;;
12350;SDS011;6240;51.538;7.696;2022-11-20T10:55:33;14.87;;;10.30;;
12350;SDS011;6240;51.538;7.696;2022-11-20T10:58:01;12.60;;;10.67;;
12350;SDS011;6240;51.538;7.696;2022-11-20T11:00:32;11.90;;;9.87;;
12350;SDS011;6240;51.538;7.696;2022-11-20T11:02:59;14.83;;;10.47;;
12350;SDS011;6240;51.538;7.696;2022-11-20T11:05:39;13.70;;;10.20;;
12350;SDS011;6240;51.538;7.696;2022-11-20T11:08:09;14.30;;;10.90;;
12350;SDS011;6240;51.538;7.696;2022-11-20T11:10:39;14.03;;;10.70;;
12350;SDS011;6240;51.538;7.696;2022-11-20T11:13:07;12.50;;;9.80;;
12350;SDS011;6240;51.538;7.696;2022-11-20T11:15:36;26.23;;;12.27;;
12350;SDS011;6240;51.538;7.696;2022-11-20T11:18:04;14.13;;;9.90;;
12350;SDS011;6240;51.538;7.696;2022-11-20T11:20:32;11.67;;;10.23;;
12350;SDS011;6240;51.538;7.696;2022-11-20T11:23:00;14.37;;;11.00;;
12350;SDS011;6240;51.538;7.696;2022-11-20T11:25:29;12.50;;;10.63;;
12350;SDS011;6240;51.538;7.696;2022-11-20T11:27:59;14.17;;;11.57;;
12350;SDS011;6240;51.538;7.696;2022-11-20T11:30:29;13.10;;;10.70;;
12350;SDS011;6240;51.538;7.696;2022-11-20T11:33:04;15.53;;;12.03;;
12350;SDS011;6240;51.538;7.696;2022-11-20T11:35:32;15.00;;;11.37;;
12350;SDS011;6240;51.538;7.696;2022-11-20T11:38:05;14.47;;;11.10;;
12350;SDS011;6240;51.538;7.696;2022-11-20T11:40:34;14.87;;;11.33;;
12350;SDS011;6240;51.538;7.696;2022-11-20T11:43:02;13.13;;;10.60;;
12350;SDS011;6240;51.538;7.696;2022-11-20T11:45:53;12.33;;;10.43;;
12350;SDS011;6240;51.538;7.696;2022-11-20T11:48:24;12.30;;;10.20;;
12350;SDS011;6240;51.538;7.696;2022-11-20T11:50:52;13.97;;;10.13;;
12350;SDS011;6240;51.538;7.696;2022-11-20T11:53:21;11.57;;;9.73;;
12350;SDS011;6240;51.538;7.696;2022-11-20T11:55:49;13.83;;;10.63;;
12350;SDS011;6240;51.538;7.696;2022-11-20T11:58:40;14.80;;;10.73;;
12350;SDS011;6240;51.538;7.696;2022-11-20T12:01:11;13.83;;;10.10;;
12350;SDS011;6240;51.538;7.696;2022-11-20T12:03:50;11.40;;;9.73;;
12350;SDS011;6240;51.538;7.696;2022-11-20T12:06:19;12.00;;;9.67;;
12350;SDS011;6240;51.538;7.696;2022-11-20T12:08:49;11.17;;;8.83;;
12350;SDS011;6240;51.538;7.696;2022-11-20T12:11:18;12.70;;;9.80;;
12350;SDS011;6240;51.538;7.696;2022-11-20T12:13:49;12.17;;;8.83;;
12350;SDS011;6240;51.538;7.696;2022-11-20T12:16:19;9.90;;;8.20;;
12350;SDS011;6240;51.538;7.696;2022-11-20T12:18:48;9.93;;;7.87;;
12350;SDS011;6240;51.538;7.696;2022-11-20T12:21:20;9.57;;;7.67;;
12350;SDS011;6240;51.538;7.696;2022-11-20T12:23:52;8.50;;;7.10;;
12350;SDS011;6240;51.538;7.696;2022-11-20T12:26:25;10.47;;;8.00;;
12350;SDS011;6240;51.538;7.696;2022-11-20T12:28:57;10.17;;;8.03;;
12350;SDS011;6240;51.538;7.696;2022-11-20T12:31:38;10.17;;;8.23;;
12350;SDS011;6240;51.538;7.696;2022-11-20T12:34:10;11.63;;;7.97;;
12350;SDS011;6240;51.538;7.696;2022-11-20T12:36:40;10.20;;;7.53;;
12350;SDS011;6240;51.538;7.696;2022-11-20T12:39:17;10.23;;;7.87;;
12350;SDS011;6240;51.538;7.696;2022-11-20T12:41:48;9.90;;;7.53;;
12350;SDS011;6240;51.538;7.696;2022-11-20T12:44:43;9.43;;;8.20;;
12350;SDS011;6240;51.538;7.696;2022-11-20T12:47:33;12.27;;;9.30;;
12350;SDS011;6240;51.538;7.696;2022-11-20T12:50:08;9.27;;;8.03;;
12350;SDS011;6240;51.538;7.696;2022-11-20T12:52:42;10.30;;;8.63;;
12350;SDS011;6240;51.538;7.696;2022-11-20T12:55:27;11.30;;;7.50;;
12350;SDS011;6240;51.538;7.696;2022-11-20T12:57:58;10.80;;;8.37;;
12350;SDS011;6240;51.538;7.696;2022-11-20T13:00:27;11.07;;;8.77;;
12350;SDS011;6240;51.538;7.696;2022-11-20T13:05:45;11.57;;;9.00;;
12350;SDS011;6240;51.538;7.696;2022-11-20T13:08:18;11.23;;;9.50;;
12350;SDS011;6240;51.538;7.696;2022-11-20T13:10:51;13.53;;;10.50;;
12350;SDS011;6240;51.538;7.696;2022-11-20T13:13:23;12.07;;;10.30;;
12350;SDS011;6240;51.538;7.696;2022-11-20T13:15:54;10.80;;;9.17;;
12350;SDS011;6240;51.538;7.696;2022-11-20T13:18:22;15.93;;;9.87;;
12350;SDS011;6240;51.538;7.696;2022-11-20T13:20:50;11.67;;;9.47;;
12350;SDS011;6240;51.538;7.696;2022-11-20T13:23:24;11.63;;;9.53;;
12350;SDS011;6240;51.538;7.696;2022-11-20T13:26:03;11.37;;;8.50;;
12350;SDS011;6240;51.538;7.696;2022-11-20T13:28:30;10.93;;;8.80;;
12350;SDS011;6240;51.538;7.696;2022-11-20T13:30:58;10.93;;;9.03;;
12350;SDS011;6240;51.538;7.696;2022-11-20T13:33:27;12.20;;;8.60;;
12350;SDS011;6240;51.538;7.696;2022-11-20T13:35:55;10.77;;;9.00;;
12350;SDS011;6240;51.538;7.696;2022-11-20T13:38:24;12.67;;;9.57;;
12350;SDS011;6240;51.538;7.696;2022-11-20T13:41:00;11.80;;;10.40;;
12350;SDS011;6240;51.538;7.696;2022-11-20T13:43:51;14.73;;;11.20;;
12350;SDS011;6240;51.538;7.696;2022-11-20T13:46:19;12.70;;;10.00;;
12350;SDS011;6240;51.538;7.696;2022-11-20T13:48:50;13.20;;;10.60;;
12350;SDS011;6240;51.538;7.696;2022-11-20T13:51:25;12.03;;;9.93;;
12350;SDS011;6240;51.538;7.696;2022-11-20T13:54:03;14.57;;;10.77;;
12350;SDS011;6240;51.538;7.696;2022-11-20T13:56:34;13.67;;;10.90;;
12350;SDS011;6240;51.538;7.696;2022-11-20T13:59:10;12.03;;;10.03;;
12350;SDS011;6240;51.538;7.696;2022-11-20T14:01:41;13.23;;;10.90;;
12350;SDS011;6240;51.538;7.696;2022-11-20T14:04:13;15.20;;;11.40;;
12350;SDS011;6240;51.538;7.696;2022-11-20T14:06:42;13.13;;;9.87;;
12350;SDS011;6240;51.538;7.696;2022-11-20T14:09:10;12.67;;;10.13;;
12350;SDS011;6240;51.538;7.696;2022-11-20T14:11:45;12.57;;;10.23;;
12350;SDS011;6240;51.538;7.696;2022-11-20T14:14:15;12.87;;;9.83;;
12350;SDS011;6240;51.538;7.696;2022-11-20T14:16:42;12.60;;;9.87;;
12350;SDS011;6240;51.538;7.696;2022-11-20T14:19:27;12.47;;;10.43;;
12350;SDS011;6240;51.538;7.696;2022-11-20T14:22:07;14.73;;;11.00;;
12350;SDS011;6240;51.538;7.696;2022-11-20T14:24:35;15.83;;;10.97;;
12350;SDS011;6240;51.538;7.696;2022-11-20T14:27:04;17.10;;;11.03;;
12350;SDS011;6240;51.538;7.696;2022-11-20T14:29:34;14.37;;;11.07;;
12350;SDS011;6240;51.538;7.696;2022-11-20T14:32:02;15.87;;;12.37;;
12350;SDS011;6240;51.538;7.696;2022-11-20T14:34:32;16.03;;;12.33;;
12350;SDS011;6240;51.538;7.696;2022-11-20T14:37:01;14.07;;;11.30;;
12350;SDS011;6240;51.538;7.696;2022-11-20T14:39:29;16.50;;;12.17;;
12350;SDS011;6240;51.538;7.696;2022-11-20T14:41:58;15.43;;;11.67;;
12350;SDS011;6240;51.538;7.696;2022-11-20T14:44:26;14.20;;;11.37;;
12350;SDS011;6240;51.538;7.696;2022-11-20T14:46:55;15.20;;;11.73;;
12350;SDS011;6240;51.538;7.696;2022-11-20T14:49:22;15.73;;;11.97;;
12350;SDS011;6240;51.538;7.696;2022-11-20T14:51:58;14.97;;;11.07;;
12350;SDS011;6240;51.538;7.696;2022-11-20T14:54:26;14.83;;;11.80;;
12350;SDS011;6240;51.538;7.696;2022-11-20T14:56:54;15.27;;;11.90;;
12350;SDS011;6240;51.538;7.696;2022-11-20T14:59:23;13.47;;;10.90;;